Terminal Aerodrome Forecast
Issued by NWS

Home | Current Version | Previous Version | Text Only | Print | Product List | Glossary On
Versions: 1 2 3 4 5 6 7 8 9 10 11 12 13 14 15 16 17 18 19 20 21 22 23 24
000
FTUS43 KDLH 201143
TAFHIB
TAF
KHIB 201143Z 2012/2112 13006KT P6SM SKC
     FM201300 16005KT P6SM BKN008
     FM201700 16008KT P6SM BKN012
     FM202100 17008KT P6SM SCT025 SCT080
     FM210500 18006KT P6SM VCTS SCT050CB SCT100
     FM210900 17005KT 4SM -SHRA VCTS BKN025CB OVC040=

USA.gov is the U.S. government's official web portal to all federal, state and local government web resources and services.